Linville Falls, North Carolina
Current Conditions -  °F | °C
As of 6:55 PM on Friday 31 Oct 2014 (Local Time) from KMRN Reporting Station
Light Rain Light Rain  
Wind Chill: 51°   Ceiling: 4400
Heat Index: 51°   Visibility: 10mi
Dew Point: 45°   Wind: 0mph
Humidity: 80%   Direction: NA
Pressure: 29.85"   Gusts: NA
Location:  35.96°N, 81.94°W
Report Text: KMRN 312255Z AUTO 00000KT 10SM -RA OVC044 11/07 A2985 RMK AO2 T01050071
Loading
Personal Weather Stations






























Interactive Weather Map
Tropical Storm Tracking
New forecast layout! Learn more

10-Day Weather Forecast

Advertisements
Track Severe Weather on mobile